DAL5421 KATL-MMUN
Flight info
| Callsign | DAL5421 |
|---|---|
| Flight time | N/A |
| Altitude | 35000 |
| Route | BANNG3 LUCKK DCT BULZI DCT PLYER/N0467F340 DCT KNOST M219 NAVVL L465 SHARQ UM463 WALKY UB879 NOSAT DCT CUN DCT |
| Aircraft | A320/M-SDE3FGHIRWY/LB1 |
Departure
| Time | 2026-05-03 23:25 |
|---|---|
| Airport | Hartsfield Jackson Atlanta International Airport (KATL) |
Arrival
| Time | N/A |
|---|---|
| Airport | Cancún International Airport (MMUN) |
| Time | Latitude | Longitude | Altitude | Speed | Heading |
|---|---|---|---|---|---|
| 2026-05-03 23:05 | 33.63867 | -84.43316 | 1012 ft | 0 kts | 91° |
| 2026-05-03 23:17 | 33.63867 | -84.43326 | 1012 ft | 3 kts | 90° |
| 2026-05-03 23:17 | 33.63867 | -84.43349 | 1013 ft | 3 kts | 94° |
| 2026-05-03 23:18 | 33.63870 | -84.43373 | 1013 ft | 3 kts | 110° |
| 2026-05-03 23:18 | 33.63879 | -84.43394 | 1013 ft | 3 kts | 132° |
| 2026-05-03 23:18 | 33.63888 | -84.43404 | 1014 ft | 0 kts | 145° |
| 2026-05-03 23:18 | 33.63879 | -84.43401 | 1013 ft | 3 kts | 160° |
| 2026-05-03 23:19 | 33.63857 | -84.43395 | 1013 ft | 3 kts | 174° |
| 2026-05-03 23:19 | 33.63830 | -84.43394 | 1012 ft | 5 kts | 178° |
| 2026-05-03 23:19 | 33.63785 | -84.43393 | 1011 ft | 7 kts | 179° |
| 2026-05-03 23:19 | 33.63743 | -84.43393 | 1010 ft | 0 kts | 180° |
| 2026-05-03 23:20 | 33.63732 | -84.43393 | 1010 ft | 8 kts | 179° |
| 2026-05-03 23:21 | 33.63666 | -84.43273 | 1008 ft | 26 kts | 92° |
| 2026-05-03 23:21 | 33.63665 | -84.43058 | 1008 ft | 26 kts | 90° |
| 2026-05-03 23:21 | 33.63664 | -84.42841 | 1006 ft | 26 kts | 91° |
| 2026-05-03 23:21 | 33.63654 | -84.42631 | 1009 ft | 24 kts | 90° |
| 2026-05-03 23:22 | 33.63656 | -84.42242 | 1006 ft | 22 kts | 91° |
| 2026-05-03 23:22 | 33.63656 | -84.42055 | 1002 ft | 23 kts | 90° |
| 2026-05-03 23:22 | 33.63655 | -84.41856 | 997 ft | 25 kts | 90° |
| 2026-05-03 23:23 | 33.63656 | -84.41652 | 993 ft | 24 kts | 90° |
| 2026-05-03 23:23 | 33.63655 | -84.41447 | 992 ft | 25 kts | 90° |
| 2026-05-03 23:23 | 33.63655 | -84.41242 | 993 ft | 23 kts | 90° |
| 2026-05-03 23:23 | 33.63654 | -84.41062 | 988 ft | 21 kts | 91° |
| 2026-05-03 23:24 | 33.63620 | -84.40920 | 991 ft | 16 kts | 154° |
| 2026-05-03 23:24 | 33.63524 | -84.40911 | 992 ft | 12 kts | 189° |
| 2026-05-03 23:24 | 33.63474 | -84.40967 | 993 ft | 10 kts | 253° |
| 2026-05-03 23:24 | 33.63469 | -84.41152 | 988 ft | 52 kts | 270° |
| 2026-05-03 23:25 | 33.63470 | -84.41569 | 993 ft | 98 kts | 270° |
| 2026-05-03 23:25 | 33.63451 | -84.43011 | 1297 ft | 141 kts | 267° |
| 2026-05-03 23:25 | 33.63391 | -84.44224 | 1892 ft | 155 kts | 268° |
| 2026-05-03 23:25 | 33.63365 | -84.45566 | 2373 ft | 171 kts | 271° |
| 2026-05-03 23:26 | 33.63373 | -84.46435 | 2662 ft | 171 kts | 273° |
| 2026-05-03 23:26 | 33.63392 | -84.47857 | 3159 ft | 171 kts | 272° |
| 2026-05-03 23:26 | 33.63414 | -84.49753 | 3746 ft | 174 kts | 272° |
| 2026-05-03 23:26 | 33.63427 | -84.51262 | 4035 ft | 187 kts | 271° |
| 2026-05-03 23:27 | 33.63436 | -84.52874 | 4343 ft | 199 kts | 270° |
| 2026-05-03 23:27 | 33.63444 | -84.54580 | 4669 ft | 211 kts | 270° |
| 2026-05-03 23:27 | 33.63448 | -84.55802 | 4887 ft | 222 kts | 271° |
| 2026-05-03 23:27 | 33.63452 | -84.57716 | 5196 ft | 238 kts | 270° |
| 2026-05-03 23:28 | 33.63457 | -84.59775 | 5549 ft | 255 kts | 271° |
| 2026-05-03 23:28 | 33.63460 | -84.61919 | 6016 ft | 265 kts | 271° |
| 2026-05-03 23:28 | 33.63363 | -84.64141 | 6522 ft | 270 kts | 257° |
| 2026-05-03 23:28 | 33.62513 | -84.66164 | 7010 ft | 278 kts | 229° |
| 2026-05-03 23:29 | 33.60947 | -84.67546 | 7502 ft | 283 kts | 212° |
| 2026-05-03 23:29 | 33.59229 | -84.68723 | 7998 ft | 285 kts | 210° |
| 2026-05-03 23:29 | 33.57354 | -84.69510 | 8500 ft | 291 kts | 187° |
| 2026-05-03 23:29 | 33.55320 | -84.69347 | 9015 ft | 295 kts | 172° |
| 2026-05-03 23:30 | 33.53279 | -84.68954 | 9532 ft | 298 kts | 172° |
| 2026-05-03 23:30 | 33.51218 | -84.68555 | 10057 ft | 302 kts | 172° |
| 2026-05-03 23:30 | 33.49138 | -84.68156 | 10532 ft | 304 kts | 173° |
| 2026-05-03 23:30 | 33.47045 | -84.67757 | 11011 ft | 305 kts | 173° |
| 2026-05-03 23:31 | 33.44939 | -84.67358 | 11510 ft | 307 kts | 173° |
| 2026-05-03 23:31 | 33.42821 | -84.66952 | 12006 ft | 309 kts | 172° |
| 2026-05-03 23:31 | 33.40772 | -84.66145 | 12514 ft | 314 kts | 158° |
| 2026-05-03 23:31 | 33.38775 | -84.65074 | 13029 ft | 315 kts | 157° |
| 2026-05-03 23:32 | 33.36771 | -84.63984 | 13554 ft | 317 kts | 157° |
| 2026-05-03 23:32 | 33.34755 | -84.62886 | 14065 ft | 320 kts | 158° |
| 2026-05-03 23:32 | 33.32725 | -84.61786 | 14522 ft | 322 kts | 158° |
| 2026-05-03 23:32 | 33.30675 | -84.60682 | 15016 ft | 324 kts | 158° |
| 2026-05-03 23:33 | 33.28613 | -84.59575 | 15503 ft | 326 kts | 158° |
| 2026-05-03 23:33 | 33.26537 | -84.58459 | 16000 ft | 328 kts | 158° |
| 2026-05-03 23:33 | 33.24474 | -84.57349 | 16491 ft | 331 kts | 158° |
| 2026-05-03 23:33 | 33.22368 | -84.56215 | 17007 ft | 333 kts | 159° |
| 2026-05-03 23:34 | 33.20222 | -84.55063 | 17534 ft | 335 kts | 159° |
| 2026-05-03 23:34 | 33.18090 | -84.53917 | 18054 ft | 337 kts | 159° |
| 2026-05-03 23:34 | 33.15974 | -84.52779 | 18565 ft | 338 kts | 159° |
| 2026-05-03 23:34 | 33.13826 | -84.51625 | 19028 ft | 339 kts | 159° |
| 2026-05-03 23:35 | 33.11672 | -84.50468 | 19504 ft | 340 kts | 159° |
| 2026-05-03 23:35 | 33.09513 | -84.49311 | 19980 ft | 340 kts | 159° |
| 2026-05-03 23:35 | 33.07355 | -84.48155 | 20471 ft | 340 kts | 159° |
| 2026-05-03 23:35 | 33.05195 | -84.46999 | 20969 ft | 340 kts | 159° |
| 2026-05-03 23:36 | 33.03039 | -84.45844 | 21473 ft | 338 kts | 159° |